Buoy 62909

sailwx.info

Track history (hours):
 
Tides and Currents Weather Stations Pressure Air Temp Water Temp Dewpoint Dewpoint Depression Visibility Wind Speed Wind Dir Waves Ship Positions

Drifting buoy 62909

Last reported at 2015-Jul-29 15:02 UTC. Time now 2015-Jul-29 20:03 UTC.
Position N 39°21' E 000°19'.

Water temperature 26.9 ° C

Date/timePositionNaut miles runAvg speedWind from/ knotsBaromVisibWave heightAir tempDewpointWater temp
2015-Jul-29 15:02N 39°21' E 000°19'0 0.0 26.9
2015-Jul-29 14:56N 39°21' E 000°19'2 0.6 26.9
2015-Jul-29 10:55N 39°19' E 000°17'0 0.0 26.6
2015-Jul-29 10:04N 39°19' E 000°17'0 0.0 26.6
2015-Jul-29 10:01N 39°19' E 000°17'1 0.4 26.6
2015-Jul-29 07:06N 39°18' E 000°17'110.8 26.5
2015-Jul-29 07:00N 39°16' E 000°17'0 0.0 26.5
2015-Jul-29 05:56N 39°16' E 000°17'0 0.3 26.4
2015-Jul-29 04:11N 39°16' E 000°18'0 1.0 26.3
2015-Jul-29 03:46N 39°16' E 000°18'2 0.3 26.3
2015-Jul-28 21:46N 39°14' E 000°16'1 1.4 26.8
2015-Jul-28 20:57N 39°14' E 000°15'0 0.0 26.9
2015-Jul-28 19:59N 39°14' E 000°15'0 0.0
2015-Jul-28 19:45N 39°14' E 000°15'0 0.0
2015-Jul-28 18:09N 39°14' E 000°15'1 1.3 26.9
2015-Jul-28 17:11N 39°13' E 000°14'0 0.0 27.4
2015-Jul-28 15:54N 39°13' E 000°14'0 0.4 27.8
2015-Jul-28 15:29N 39°12' E 000°14'0 0.9 28.0
2015-Jul-28 15:07N 39°12' E 000°14'1 0.4 28.2
2015-Jul-28 12:01N 39°11' E 000°14'2 0.3 27.3
2015-Jul-28 06:04N 39°13' E 000°14'2 0.4 26.2
2015-Jul-28 01:59N 39°12' E 000°12'0 0.0 26.4
2015-Jul-27 22:03N 39°12' E 000°12'0 0.0 26.9
2015-Jul-27 21:59N 39°12' E 000°12'0 0.1 26.9
2015-Jul-27 17:04N 39°12' E 000°11'0 0.0 27.2
2015-Jul-27 16:58N 39°12' E 000°11'0 0.1
2015-Jul-27 16:04N 39°12' E 000°11'1 0.1 27.0
2015-Jul-27 11:57N 39°12' E 000°11'0 5.2 26.5
2015-Jul-27 11:54N 39°12' E 000°10'0 0.1 26.5
2015-Jul-27 09:58N 39°12' E 000°10'0 0.1 26.3
2015-Jul-27 09:04N 39°12' E 000°11'1 6.7 26.3
2015-Jul-27 08:59N 39°11' E 000°10'0 0.0
2015-Jul-27 07:54N 39°11' E 000°10'0 0.1 26.0
2015-Jul-27 06:16N 39°12' E 000°10'0 0.3 25.6
2015-Jul-27 04:49N 39°11' E 000°10'1 0.2 25.8
2015-Jul-27 02:09N 39°11' E 000°11'218.2 26.0
2015-Jul-27 02:04N 39°11' E 000°09'0 0.0 26.0
2015-Jul-26 22:29N 39°11' E 000°09'0 0.0 25.2
2015-Jul-26 22:20N 39°11' E 000°09'0 0.0 25.2
2015-Jul-26 21:35N 39°11' E 000°09'0 0.0 25.2
2015-Jul-26 20:47N 39°11' E 000°09'0 0.3 25.2
2015-Jul-26 19:55N 39°11' E 000°10'0 0.0
2015-Jul-26 19:08N 39°11' E 000°10'0 0.0 25.6
2015-Jul-26 17:49N 39°11' E 000°10'0 0.0 26.0
2015-Jul-26 17:31N 39°11' E 000°10'1 0.8 26.2
2015-Jul-26 16:18N 39°11' E 000°11'210.2 26.3
2015-Jul-26 16:09N 39°10' E 000°09'0 0.0 26.3
2015-Jul-26 15:31N 39°10' E 000°09'0 0.0 26.4
2015-Jul-26 13:51N 39°10' E 000°09'0 0.0 26.3
2015-Jul-26 13:44N 39°10' E 000°09'0 0.2 26.3
2015-Jul-26 12:09N 39°11' E 000°09'0 0.0 25.9
2015-Jul-26 11:08N 39°11' E 000°09'117.0 26.0
2015-Jul-26 11:03N 39°12' E 000°08'2 2.5 26.0
2015-Jul-26 10:17N 39°11' E 000°10'1 0.6 25.9
2015-Jul-26 09:23N 39°11' E 000°09'0 0.0 25.8
2015-Jul-26 07:00N 39°11' E 000°09'0 0.9 25.7
2015-Jul-26 06:32N 39°11' E 000°09'0 0.0
2015-Jul-26 06:28N 39°11' E 000°09'0 0.0 25.7
2015-Jul-26 05:20N 39°11' E 000°09'0 0.9 25.5
2015-Jul-26 04:52N 39°11' E 000°10'0 0.0 25.5
2015-Jul-26 04:47N 39°11' E 000°10'3 3.1 25.5
2015-Jul-26 03:56N 39°13' E 000°08'0 0.0 25.7
2015-Jul-26 02:21N 39°13' E 000°08'0 0.0 25.7
2015-Jul-25 22:50N 39°13' E 000°08'1 7.4 25.9
2015-Jul-25 22:44N 39°13' E 000°08'0 0.0 25.9
2015-Jul-25 21:57N 39°13' E 000°08'1 1.3 25.9
2015-Jul-25 20:59N 39°12' E 000°07'1 0.2
2015-Jul-25 18:10N 39°13' E 000°06'0 0.0 25.9
2015-Jul-25 18:08N 39°13' E 000°06'0 0.0
2015-Jul-25 18:03N 39°13' E 000°06'1 0.2 25.9
2015-Jul-25 14:03N 39°13' E 000°05'1 0.3 25.7
2015-Jul-25 09:46N 39°15' E 000°06'220.8 26.1
2015-Jul-25 09:40N 39°15' E 000°04'1 1.0 26.2
2015-Jul-25 08:57N 39°15' E 000°05'1 0.8 26.3
2015-Jul-25 08:04N 39°15' E 000°04'1 1.4 26.5
2015-Jul-25 07:31N 39°15' E 000°05'0 0.0 26.6
2015-Jul-25 07:03N 39°15' E 000°05'0 0.0 26.5
2015-Jul-25 05:53N 39°15' E 000°05'0 0.0 26.7
2015-Jul-25 05:18N 39°15' E 000°05'0 0.0 26.8
2015-Jul-25 04:55N 39°15' E 000°05'0 0.0 26.9
2015-Jul-25 04:11N 39°15' E 000°05'0 0.0 27.0
2015-Jul-25 04:10N 39°15' E 000°05'2 0.2 27.0
2015-Jul-24 18:16N 39°17' E 000°03'1 0.4 26.8
2015-Jul-24 16:56N 39°17' E 000°04'0 7.2 27.3
2015-Jul-24 16:52N 39°17' E 000°03'2 0.1 27.3
2015-Jul-23 21:06N 39°19' E 000°01'0 0.0 27.4
2015-Jul-23 20:55N 39°19' E 000°01'0 0.0 27.4
2015-Jul-23 20:03N 39°19' E 000°01'0 0.0 27.4
2015-Jul-23 19:10N 39°19' E 000°01'0 0.0 27.5
2015-Jul-23 19:02N 39°19' E 000°01'1 0.2 27.5
2015-Jul-23 15:54N 39°19' E 000°02'0 0.0 27.9
2015-Jul-23 15:07N 39°19' E 000°02'1 0.4 28.2
2015-Jul-23 12:05N 39°20' E 000°01'1 0.3 28.6
2015-Jul-23 08:49N 39°21' E 000°01'0 0.5 27.4
2015-Jul-23 07:51N 39°21' E 000°00'1 0.9 27.2
2015-Jul-23 07:02N 39°21' E 000°01'1 0.6 27.1
2015-Jul-23 06:12N 39°21' E 000°00'2 0.5 27.1
2015-Jul-23 02:59N 39°21' E 000°02'235.7 27.1
2015-Jul-23 02:56N 39°23' E 000°02'0 0.0 27.1
2015-Jul-23 01:16N 39°23' E 000°02'0 0.1 27.2
2015-Jul-22 22:04N 39°23' E 000°01'1 0.3 27.3
2015-Jul-22 17:59N 39°24' E 000°01'0 0.0 27.6
2015-Jul-22 17:57N 39°24' E 000°01'0 0.0 27.6
2015-Jul-22 17:55N 39°24' E 000°01'0 0.0 27.6
2015-Jul-22 17:04N 39°24' E 000°01'0 0.0 27.6
2015-Jul-22 17:01N 39°24' E 000°01'0 0.3 27.6
2015-Jul-22 15:14N 39°24' E 000°01'1 0.5 27.5
2015-Jul-22 12:56N 39°25' E 000°01'0 0.1 27.5
2015-Jul-22 10:48N 39°26' E 000°01'0 0.0 27.5
2015-Jul-22 10:03N 39°26' E 000°01'0 0.0 27.3
2015-Jul-22 09:57N 39°26' E 000°01'1 0.7 27.3
2015-Jul-22 09:07N 39°26' E 000°01'1 0.4 27.2
2015-Jul-22 07:09N 39°26' E 000°02'2 1.4 27.2
2015-Jul-22 05:49N 39°26' E 000°04'1 1.1 27.2
2015-Jul-22 04:55N 39°27' E 000°03'0 0.0 27.3
2015-Jul-22 04:04N 39°27' E 000°03'0 0.0 27.3
2015-Jul-22 03:11N 39°27' E 000°03'0 0.0 27.3
2015-Jul-22 03:06N 39°27' E 000°03'2 0.3 27.3
2015-Jul-21 20:50N 39°29' E 000°04'0 0.0 27.5
2015-Jul-21 20:06N 39°29' E 000°04'0 0.0 27.6
2015-Jul-21 19:59N 39°29' E 000°04'0 0.0
2015-Jul-21 17:13N 39°29' E 000°04'1 2.2 27.8
2015-Jul-21 16:50N 39°29' E 000°05'1 0.3
2015-Jul-21 12:56N 39°29' E 000°07'0 0.0 28.2
2015-Jul-21 11:09N 39°29' E 000°07'1 0.2 27.9
2015-Jul-21 07:06N 39°30' E 000°07'1 8.4 27.3
2015-Jul-21 07:00N 39°30' E 000°08'1 0.3 27.3
2015-Jul-21 04:58N 39°30' E 000°09'1 0.7 27.3
2015-Jul-21 04:02N 39°30' E 000°10'0 0.0 27.4
2015-Jul-21 03:18N 39°30' E 000°10'1 0.6 27.4
2015-Jul-21 01:37N 39°30' E 000°11'0 0.0
2015-Jul-20 22:52N 39°30' E 000°11'0 0.0 27.5
2015-Jul-20 22:49N 39°30' E 000°11'0 0.5 27.5
2015-Jul-20 22:01N 39°30' E 000°11'0 0.0 27.4
2015-Jul-20 21:14N 39°30' E 000°11'0 2.0 27.5
2015-Jul-20 21:07N 39°30' E 000°11'0 0.0 27.5
2015-Jul-20 20:37N 39°30' E 000°11'1 3.8 27.5
2015-Jul-20 20:20N 39°29' E 000°12'0 0.0 27.5
2015-Jul-20 19:31N 39°29' E 000°12'1 8.0 27.5
2015-Jul-20 19:24N 39°30' E 000°12'0 0.0 27.5
2015-Jul-20 19:01N 39°30' E 000°12'1 4.9 27.5
2015-Jul-20 18:49N 39°30' E 000°13'1 0.4 27.5
2015-Jul-20 17:21N 39°30' E 000°13'1 4.3 27.5
2015-Jul-20 17:11N 39°29' E 000°14'0 0.0 27.5
2015-Jul-20 16:59N 39°29' E 000°14'0 0.0 27.5
2015-Jul-20 15:43N 39°29' E 000°14'1 0.9 27.5
2015-Jul-20 14:58N 39°29' E 000°15'1 0.6 27.4
2015-Jul-20 13:13N 39°29' E 000°16'0 0.0 27.5
2015-Jul-20 11:30N 39°29' E 000°16'1 1.2 27.3
2015-Jul-20 10:44N 39°29' E 000°17'0 0.0
2015-Jul-20 09:50N 39°29' E 000°17'0 3.4 27.1
2015-Jul-20 09:45N 39°29' E 000°18'0 0.3 27.1
2015-Jul-20 08:07N 39°29' E 000°18'0 0.0 27.0
2015-Jul-20 06:51N 39°29' E 000°18'0 0.0 27.0
2015-Jul-20 05:54N 39°29' E 000°18'0 0.0 27.0
2015-Jul-20 05:12N 39°29' E 000°18'1 0.9 27.0
2015-Jul-20 04:16N 39°28' E 000°19'0 0.0 27.1
2015-Jul-20 01:52N 39°28' E 000°19'4 0.6 27.2
2015-Jul-19 19:45N 39°27' E 000°23'0 0.2 27.2
2015-Jul-19 17:53N 39°27' E 000°24'0 0.0 27.3
2015-Jul-19 17:35N 39°27' E 000°24'0 0.1 27.3
2015-Jul-19 15:57N 39°27' E 000°24'1 1.3 27.4
2015-Jul-19 15:06N 39°26' E 000°25'   27.4
Track history (hours):
 
Tides and Currents Weather Stations Pressure Air Temp Water Temp Dewpoint Dewpoint Depression Visibility Wind Speed Wind Dir Waves Ship Positions

Drifting buoy 62909

Last reported at 2015-Jul-29 15:02 UTC. Time now 2015-Jul-29 20:03 UTC.
Position N 39°21' E 000°19'.

Water temperature 26.9 ° C

Date/timePositionNaut miles runAvg speedWind from/ knotsBaromVisibWave heightAir tempDewpointWater temp
2015-Jul-29 15:02N 39°21' E 000°19'0 0.0 26.9
2015-Jul-29 14:56N 39°21' E 000°19'2 0.6 26.9
2015-Jul-29 10:55N 39°19' E 000°17'0 0.0 26.6
2015-Jul-29 10:04N 39°19' E 000°17'0 0.0 26.6
2015-Jul-29 10:01N 39°19' E 000°17'1 0.4 26.6
2015-Jul-29 07:06N 39°18' E 000°17'110.8 26.5
2015-Jul-29 07:00N 39°16' E 000°17'0 0.0 26.5
2015-Jul-29 05:56N 39°16' E 000°17'0 0.3 26.4
2015-Jul-29 04:11N 39°16' E 000°18'0 1.0 26.3
2015-Jul-29 03:46N 39°16' E 000°18'2 0.3 26.3
2015-Jul-28 21:46N 39°14' E 000°16'1 1.4 26.8
2015-Jul-28 20:57N 39°14' E 000°15'0 0.0 26.9
2015-Jul-28 19:59N 39°14' E 000°15'0 0.0
2015-Jul-28 19:45N 39°14' E 000°15'0 0.0
2015-Jul-28 18:09N 39°14' E 000°15'1 1.3 26.9
2015-Jul-28 17:11N 39°13' E 000°14'0 0.0 27.4
2015-Jul-28 15:54N 39°13' E 000°14'0 0.4 27.8
2015-Jul-28 15:29N 39°12' E 000°14'0 0.9 28.0
2015-Jul-28 15:07N 39°12' E 000°14'1 0.4 28.2
2015-Jul-28 12:01N 39°11' E 000°14'2 0.3 27.3
2015-Jul-28 06:04N 39°13' E 000°14'2 0.4 26.2
2015-Jul-28 01:59N 39°12' E 000°12'0 0.0 26.4
2015-Jul-27 22:03N 39°12' E 000°12'0 0.0 26.9
2015-Jul-27 21:59N 39°12' E 000°12'0 0.1 26.9
2015-Jul-27 17:04N 39°12' E 000°11'0 0.0 27.2
2015-Jul-27 16:58N 39°12' E 000°11'0 0.1
2015-Jul-27 16:04N 39°12' E 000°11'1 0.1 27.0
2015-Jul-27 11:57N 39°12' E 000°11'0 5.2 26.5
2015-Jul-27 11:54N 39°12' E 000°10'0 0.1 26.5
2015-Jul-27 09:58N 39°12' E 000°10'0 0.1 26.3
2015-Jul-27 09:04N 39°12' E 000°11'1 6.7 26.3
2015-Jul-27 08:59N 39°11' E 000°10'0 0.0
2015-Jul-27 07:54N 39°11' E 000°10'0 0.1 26.0
2015-Jul-27 06:16N 39°12' E 000°10'0 0.3 25.6
2015-Jul-27 04:49N 39°11' E 000°10'1 0.2 25.8
2015-Jul-27 02:09N 39°11' E 000°11'218.2 26.0
2015-Jul-27 02:04N 39°11' E 000°09'0 0.0 26.0
2015-Jul-26 22:29N 39°11' E 000°09'0 0.0 25.2
2015-Jul-26 22:20N 39°11' E 000°09'0 0.0 25.2
2015-Jul-26 21:35N 39°11' E 000°09'0 0.0 25.2
2015-Jul-26 20:47N 39°11' E 000°09'0 0.3 25.2
2015-Jul-26 19:55N 39°11' E 000°10'0 0.0
2015-Jul-26 19:08N 39°11' E 000°10'0 0.0 25.6
2015-Jul-26 17:49N 39°11' E 000°10'0 0.0 26.0
2015-Jul-26 17:31N 39°11' E 000°10'1 0.8 26.2
2015-Jul-26 16:18N 39°11' E 000°11'210.2 26.3
2015-Jul-26 16:09N 39°10' E 000°09'0 0.0 26.3
2015-Jul-26 15:31N 39°10' E 000°09'0 0.0 26.4
2015-Jul-26 13:51N 39°10' E 000°09'0 0.0 26.3
2015-Jul-26 13:44N 39°10' E 000°09'0 0.2 26.3
2015-Jul-26 12:09N 39°11' E 000°09'0 0.0 25.9
2015-Jul-26 11:08N 39°11' E 000°09'117.0 26.0
2015-Jul-26 11:03N 39°12' E 000°08'2 2.5 26.0
2015-Jul-26 10:17N 39°11' E 000°10'1 0.6 25.9
2015-Jul-26 09:23N 39°11' E 000°09'0 0.0 25.8
2015-Jul-26 07:00N 39°11' E 000°09'0 0.9 25.7
2015-Jul-26 06:32N 39°11' E 000°09'0 0.0
2015-Jul-26 06:28N 39°11' E 000°09'0 0.0 25.7
2015-Jul-26 05:20N 39°11' E 000°09'0 0.9 25.5
2015-Jul-26 04:52N 39°11' E 000°10'0 0.0 25.5
2015-Jul-26 04:47N 39°11' E 000°10'3 3.1 25.5
2015-Jul-26 03:56N 39°13' E 000°08'0 0.0 25.7
2015-Jul-26 02:21N 39°13' E 000°08'0 0.0 25.7
2015-Jul-25 22:50N 39°13' E 000°08'1 7.4 25.9
2015-Jul-25 22:44N 39°13' E 000°08'0 0.0 25.9
2015-Jul-25 21:57N 39°13' E 000°08'1 1.3 25.9
2015-Jul-25 20:59N 39°12' E 000°07'1 0.2
2015-Jul-25 18:10N 39°13' E 000°06'0 0.0 25.9
2015-Jul-25 18:08N 39°13' E 000°06'0 0.0
2015-Jul-25 18:03N 39°13' E 000°06'1 0.2 25.9
2015-Jul-25 14:03N 39°13' E 000°05'1 0.3 25.7
2015-Jul-25 09:46N 39°15' E 000°06'220.8 26.1
2015-Jul-25 09:40N 39°15' E 000°04'1 1.0 26.2
2015-Jul-25 08:57N 39°15' E 000°05'1 0.8 26.3
2015-Jul-25 08:04N 39°15' E 000°04'1 1.4 26.5
2015-Jul-25 07:31N 39°15' E 000°05'0 0.0 26.6
2015-Jul-25 07:03N 39°15' E 000°05'0 0.0 26.5
2015-Jul-25 05:53N 39°15' E 000°05'0 0.0 26.7
2015-Jul-25 05:18N 39°15' E 000°05'0 0.0 26.8
2015-Jul-25 04:55N 39°15' E 000°05'0 0.0 26.9
2015-Jul-25 04:11N 39°15' E 000°05'0 0.0 27.0
2015-Jul-25 04:10N 39°15' E 000°05'2 0.2 27.0
2015-Jul-24 18:16N 39°17' E 000°03'1 0.4 26.8
2015-Jul-24 16:56N 39°17' E 000°04'0 7.2 27.3
2015-Jul-24 16:52N 39°17' E 000°03'2 0.1 27.3
2015-Jul-23 21:06N 39°19' E 000°01'0 0.0 27.4
2015-Jul-23 20:55N 39°19' E 000°01'0 0.0 27.4
2015-Jul-23 20:03N 39°19' E 000°01'0 0.0 27.4
2015-Jul-23 19:10N 39°19' E 000°01'0 0.0 27.5
2015-Jul-23 19:02N 39°19' E 000°01'1 0.2 27.5
2015-Jul-23 15:54N 39°19' E 000°02'0 0.0 27.9
2015-Jul-23 15:07N 39°19' E 000°02'1 0.4 28.2
2015-Jul-23 12:05N 39°20' E 000°01'1 0.3 28.6
2015-Jul-23 08:49N 39°21' E 000°01'0 0.5 27.4
2015-Jul-23 07:51N 39°21' E 000°00'1 0.9 27.2
2015-Jul-23 07:02N 39°21' E 000°01'1 0.6 27.1
2015-Jul-23 06:12N 39°21' E 000°00'2 0.5 27.1
2015-Jul-23 02:59N 39°21' E 000°02'235.7 27.1
2015-Jul-23 02:56N 39°23' E 000°02'0 0.0 27.1
2015-Jul-23 01:16N 39°23' E 000°02'0 0.1 27.2
2015-Jul-22 22:04N 39°23' E 000°01'1 0.3 27.3
2015-Jul-22 17:59N 39°24' E 000°01'0 0.0 27.6
2015-Jul-22 17:57N 39°24' E 000°01'0 0.0 27.6
2015-Jul-22 17:55N 39°24' E 000°01'0 0.0 27.6
2015-Jul-22 17:04N 39°24' E 000°01'0 0.0 27.6
2015-Jul-22 17:01N 39°24' E 000°01'0 0.3 27.6
2015-Jul-22 15:14N 39°24' E 000°01'1 0.5 27.5
2015-Jul-22 12:56N 39°25' E 000°01'0 0.1 27.5
2015-Jul-22 10:48N 39°26' E 000°01'0 0.0 27.5
2015-Jul-22 10:03N 39°26' E 000°01'0 0.0 27.3
2015-Jul-22 09:57N 39°26' E 000°01'1 0.7 27.3
2015-Jul-22 09:07N 39°26' E 000°01'1 0.4 27.2
2015-Jul-22 07:09N 39°26' E 000°02'2 1.4 27.2
2015-Jul-22 05:49N 39°26' E 000°04'1 1.1 27.2
2015-Jul-22 04:55N 39°27' E 000°03'0 0.0 27.3
2015-Jul-22 04:04N 39°27' E 000°03'0 0.0 27.3
2015-Jul-22 03:11N 39°27' E 000°03'0 0.0 27.3
2015-Jul-22 03:06N 39°27' E 000°03'2 0.3 27.3
2015-Jul-21 20:50N 39°29' E 000°04'0 0.0 27.5
2015-Jul-21 20:06N 39°29' E 000°04'0 0.0 27.6
2015-Jul-21 19:59N 39°29' E 000°04'0 0.0
2015-Jul-21 17:13N 39°29' E 000°04'1 2.2 27.8
2015-Jul-21 16:50N 39°29' E 000°05'1 0.3
2015-Jul-21 12:56N 39°29' E 000°07'0 0.0 28.2
2015-Jul-21 11:09N 39°29' E 000°07'1 0.2 27.9
2015-Jul-21 07:06N 39°30' E 000°07'1 8.4 27.3
2015-Jul-21 07:00N 39°30' E 000°08'1 0.3 27.3
2015-Jul-21 04:58N 39°30' E 000°09'1 0.7 27.3
2015-Jul-21 04:02N 39°30' E 000°10'0 0.0 27.4
2015-Jul-21 03:18N 39°30' E 000°10'1 0.6 27.4
2015-Jul-21 01:37N 39°30' E 000°11'0 0.0
2015-Jul-20 22:52N 39°30' E 000°11'0 0.0 27.5
2015-Jul-20 22:49N 39°30' E 000°11'0 0.5 27.5
2015-Jul-20 22:01N 39°30' E 000°11'0 0.0 27.4
2015-Jul-20 21:14N 39°30' E 000°11'0 2.0 27.5
2015-Jul-20 21:07N 39°30' E 000°11'0 0.0 27.5
2015-Jul-20 20:37N 39°30' E 000°11'1 3.8 27.5
2015-Jul-20 20:20N 39°29' E 000°12'0 0.0 27.5
2015-Jul-20 19:31N 39°29' E 000°12'1 8.0 27.5
2015-Jul-20 19:24N 39°30' E 000°12'0 0.0 27.5
2015-Jul-20 19:01N 39°30' E 000°12'1 4.9 27.5
2015-Jul-20 18:49N 39°30' E 000°13'1 0.4 27.5
2015-Jul-20 17:21N 39°30' E 000°13'1 4.3 27.5
2015-Jul-20 17:11N 39°29' E 000°14'0 0.0 27.5
2015-Jul-20 16:59N 39°29' E 000°14'0 0.0 27.5
2015-Jul-20 15:43N 39°29' E 000°14'1 0.9 27.5
2015-Jul-20 14:58N 39°29' E 000°15'1 0.6 27.4
2015-Jul-20 13:13N 39°29' E 000°16'0 0.0 27.5
2015-Jul-20 11:30N 39°29' E 000°16'1 1.2 27.3
2015-Jul-20 10:44N 39°29' E 000°17'0 0.0
2015-Jul-20 09:50N 39°29' E 000°17'0 3.4 27.1
2015-Jul-20 09:45N 39°29' E 000°18'0 0.3 27.1
2015-Jul-20 08:07N 39°29' E 000°18'0 0.0 27.0
2015-Jul-20 06:51N 39°29' E 000°18'0 0.0 27.0
2015-Jul-20 05:54N 39°29' E 000°18'0 0.0 27.0
2015-Jul-20 05:12N 39°29' E 000°18'1 0.9 27.0
2015-Jul-20 04:16N 39°28' E 000°19'0 0.0 27.1
2015-Jul-20 01:52N 39°28' E 000°19'4 0.6 27.2
2015-Jul-19 19:45N 39°27' E 000°23'0 0.2 27.2
2015-Jul-19 17:53N 39°27' E 000°24'0 0.0 27.3
2015-Jul-19 17:35N 39°27' E 000°24'0 0.1 27.3
2015-Jul-19 15:57N 39°27' E 000°24'1 1.3 27.4
2015-Jul-19 15:06N 39°26' E 000°25'   27.4

Dump ship's entire track history